createdAt,value
2023-01-01T00:01:23.408Z,10.23
2023-01-01T00:03:51.920Z,10.93
2023-01-01T00:06:20.271Z,12.63
2023-01-01T00:09:10.122Z,11.45
2023-01-01T00:11:38.223Z,14.40
2023-01-01T00:14:12.068Z,14.82
2023-01-01T00:16:40.878Z,16.75
2023-01-01T00:19:09.537Z,19.02
2023-01-01T00:21:37.598Z,17.48
2023-01-01T00:24:08.295Z,46.40
2023-01-01T00:26:36.387Z,42.60
2023-01-01T00:29:05.224Z,42.90
2023-01-01T00:31:33.445Z,43.30
2023-01-01T00:34:01.608Z,39.00
2023-01-01T00:36:31.018Z,36.33
2023-01-01T00:38:59.368Z,38.25
2023-01-01T00:41:28.711Z,39.40
2023-01-01T00:43:56.715Z,64.72
2023-01-01T00:46:24.846Z,85.03
2023-01-01T00:48:52.863Z,75.38
2023-01-01T00:51:20.831Z,70.22
2023-01-01T00:53:48.763Z,53.40
2023-01-01T00:56:16.813Z,39.95
2023-01-01T00:59:00.641Z,40.95
2023-01-01T01:01:29.849Z,42.65
2023-01-01T01:03:58.173Z,38.70
2023-01-01T01:06:26.268Z,27.48
2023-01-01T01:08:54.454Z,29.70
2023-01-01T01:11:24.969Z,13.40
2023-01-01T01:13:56.632Z,11.93
2023-01-01T01:16:26.930Z,11.18
2023-01-01T01:18:57.625Z,11.10
2023-01-01T01:21:26.298Z,10.57
2023-01-01T01:23:55.105Z,10.43
2023-01-01T01:26:25.097Z,10.38
2023-01-01T01:28:55.327Z,12.13
2023-01-01T01:31:26.208Z,10.90
2023-01-01T01:33:54.165Z,12.30
2023-01-01T01:36:22.685Z,10.88
2023-01-01T01:38:50.875Z,12.27
2023-01-01T01:41:29.514Z,12.68
2023-01-01T01:44:01.651Z,12.48
2023-01-01T01:46:34.627Z,12.95
2023-01-01T01:49:06.562Z,13.90
2023-01-01T01:51:38.072Z,14.35
2023-01-01T01:54:10.180Z,13.73
2023-01-01T01:56:43.992Z,14.32
2023-01-01T01:59:13.854Z,15.30
2023-01-01T02:01:42.474Z,14.45
2023-01-01T02:04:10.711Z,14.50
2023-01-01T02:06:39.979Z,12.52
2023-01-01T02:09:09.618Z,12.15
2023-01-01T02:11:37.933Z,12.38
2023-01-01T02:14:06.381Z,12.38
2023-01-01T02:16:44.054Z,8.35
2023-01-01T02:19:19.986Z,8.27
2023-01-01T02:22:02.904Z,7.85
2023-01-01T02:24:44.787Z,7.90
2023-01-01T02:27:22.208Z,8.02
2023-01-01T02:29:54.637Z,7.75
2023-01-01T02:32:25.957Z,7.65
2023-01-01T02:34:59.209Z,8.70
2023-01-01T02:37:30.405Z,8.23
2023-01-01T02:40:00.747Z,8.20
2023-01-01T02:42:30.459Z,8.32
2023-01-01T02:45:00.976Z,8.63
2023-01-01T02:47:28.739Z,8.07
2023-01-01T02:50:02.139Z,9.02
2023-01-01T02:52:46.893Z,9.10
2023-01-01T02:55:26.819Z,8.80
2023-01-01T02:58:22.999Z,9.57
2023-01-01T03:00:54.400Z,9.93
2023-01-01T03:03:29.834Z,11.02
2023-01-01T03:06:18.962Z,9.98
2023-01-01T03:08:53.666Z,10.90
2023-01-01T03:11:25.907Z,11.82
2023-01-01T03:14:02.505Z,12.15
2023-01-01T03:16:37.762Z,11.48
2023-01-01T03:19:12.173Z,12.38
2023-01-01T03:21:45.311Z,11.90
2023-01-01T03:24:20.846Z,11.90
2023-01-01T03:29:19.696Z,12.18
2023-01-01T03:31:51.318Z,12.10
2023-01-01T03:34:24.507Z,14.40
2023-01-01T03:36:58.177Z,14.20
2023-01-01T03:39:28.917Z,13.27
2023-01-01T03:42:05.882Z,13.98
2023-01-01T03:44:37.095Z,13.15
2023-01-01T03:47:07.612Z,13.23
2023-01-01T03:49:36.017Z,14.15
2023-01-01T03:52:17.130Z,14.38
2023-01-01T03:54:56.743Z,13.05
2023-01-01T03:57:32.162Z,14.25
2023-01-01T04:00:08.034Z,12.55
2023-01-01T04:02:41.753Z,13.38
2023-01-01T04:05:11.286Z,15.52
2023-01-01T04:10:18.101Z,14.75
2023-01-01T04:12:48.402Z,14.98
2023-01-01T04:15:16.751Z,14.10
2023-01-01T04:17:46.229Z,14.38
2023-01-01T04:20:15.004Z,15.13
2023-01-01T04:22:42.687Z,15.15
2023-01-01T04:25:12.132Z,14.32
2023-01-01T04:27:40.678Z,13.15
2023-01-01T04:30:11.174Z,14.93
2023-01-01T04:32:38.981Z,14.55
2023-01-01T04:35:09.891Z,14.75
2023-01-01T04:37:37.946Z,14.40
2023-01-01T04:40:07.267Z,15.35
2023-01-01T04:42:35.242Z,15.30
2023-01-01T04:45:03.045Z,15.40
2023-01-01T04:47:31.059Z,15.43
2023-01-01T04:49:58.798Z,15.88
2023-01-01T04:52:27.875Z,15.95
2023-01-01T04:54:55.703Z,15.57
2023-01-01T04:57:23.547Z,15.27
2023-01-01T04:59:51.387Z,14.45
2023-01-01T05:02:19.196Z,15.75
2023-01-01T05:04:47.064Z,15.75
2023-01-01T05:07:14.797Z,14.77
2023-01-01T05:09:43.929Z,16.55
2023-01-01T05:12:11.689Z,14.85
2023-01-01T05:14:39.393Z,15.65
2023-01-01T05:17:07.207Z,14.38
2023-01-01T05:19:34.982Z,16.08
2023-01-01T05:22:08.590Z,17.00
2023-01-01T05:27:08.642Z,15.70
2023-01-01T05:29:36.383Z,15.45
2023-01-01T05:32:04.308Z,14.63
2023-01-01T05:36:58.683Z,8.57
2023-01-01T05:39:26.404Z,6.45
2023-01-01T05:41:54.083Z,5.43
2023-01-01T05:44:23.202Z,5.68
2023-01-01T05:46:50.904Z,4.88
2023-01-01T05:49:18.641Z,4.50
2023-01-01T05:51:46.486Z,4.13
2023-01-01T05:56:40.819Z,4.55
2023-01-01T05:59:08.541Z,4.50
2023-01-01T06:01:43.477Z,4.28
2023-01-01T06:04:13.785Z,4.47
2023-01-01T06:06:41.683Z,4.55
2023-01-01T06:09:11.435Z,4.18
2023-01-01T06:11:39.341Z,5.15
2023-01-01T06:14:07.092Z,5.20
2023-01-01T06:16:34.888Z,5.22
2023-01-01T06:19:04.085Z,5.65
2023-01-01T06:21:31.762Z,5.97
2023-01-01T06:24:00.920Z,6.00
2023-01-01T06:26:30.391Z,5.63
2023-01-01T06:28:58.828Z,5.63
2023-01-01T06:31:27.794Z,4.90
2023-01-01T06:33:55.536Z,4.80
2023-01-01T06:36:26.427Z,5.30
2023-01-01T06:38:56.518Z,4.25
2023-01-01T06:41:26.357Z,4.40
2023-01-01T06:43:55.888Z,4.28
2023-01-01T06:46:26.768Z,4.00
2023-01-01T06:48:55.929Z,3.22
2023-01-01T06:51:28.025Z,3.30
2023-01-01T06:53:58.699Z,3.60
2023-01-01T06:56:26.863Z,3.90
2023-01-01T06:58:54.739Z,3.22
2023-01-01T07:01:24.368Z,3.35
2023-01-01T07:03:53.936Z,3.55
2023-01-01T07:06:22.086Z,3.65
2023-01-01T07:08:51.476Z,3.85
2023-01-01T07:11:19.577Z,4.45
2023-01-01T07:13:47.329Z,3.92
2023-01-01T07:16:15.785Z,3.92
2023-01-01T07:18:43.565Z,3.20
2023-01-01T07:21:29.647Z,3.55
2023-01-01T07:24:00.563Z,3.10
2023-01-01T07:26:29.788Z,3.67
2023-01-01T07:29:06.003Z,3.83
2023-01-01T07:31:34.864Z,4.13
2023-01-01T07:34:02.825Z,4.78
2023-01-01T07:36:30.584Z,3.88
2023-01-01T07:38:59.761Z,4.25
2023-01-01T07:41:27.574Z,3.60
2023-01-01T07:43:55.301Z,3.85
2023-01-01T07:46:23.129Z,3.50
2023-01-01T07:48:50.918Z,3.38
2023-01-01T07:51:18.680Z,3.63
2023-01-01T07:53:46.579Z,4.20
2023-01-01T07:56:15.747Z,4.72
2023-01-01T07:58:43.746Z,4.50
2023-01-01T08:01:12.692Z,4.05
2023-01-01T08:03:40.549Z,4.75
2023-01-01T08:06:10.278Z,3.78
2023-01-01T08:08:38.547Z,4.95
2023-01-01T08:11:06.974Z,4.00
2023-01-01T08:13:36.398Z,4.38
2023-01-01T08:16:07.340Z,4.18
2023-01-01T08:18:35.138Z,4.72
2023-01-01T08:21:03.522Z,4.38
2023-01-01T08:23:31.327Z,4.75
2023-01-01T08:26:03.424Z,4.43
2023-01-01T08:28:31.708Z,5.20
2023-01-01T08:31:01.343Z,4.65
2023-01-01T08:33:29.481Z,4.97
2023-01-01T08:35:57.547Z,4.53
2023-01-01T08:38:25.566Z,4.28
2023-01-01T08:40:53.527Z,3.65
2023-01-01T08:43:21.402Z,3.38
2023-01-01T08:45:49.314Z,4.32
2023-01-01T08:48:18.496Z,3.17
2023-01-01T08:50:46.200Z,3.28
2023-01-01T08:53:14.007Z,2.85
2023-01-01T08:55:41.765Z,2.20
2023-01-01T08:58:09.469Z,2.15
2023-01-01T09:00:37.384Z,2.13
2023-01-01T09:03:05.350Z,2.30
2023-01-01T09:05:34.566Z,1.88
2023-01-01T09:08:02.325Z,2.17
2023-01-01T09:10:30.134Z,2.20
2023-01-01T09:12:57.893Z,1.80
2023-01-01T09:15:25.687Z,1.80
2023-01-01T09:17:53.569Z,1.95
2023-01-01T09:20:21.613Z,2.10
2023-01-01T09:22:51.018Z,2.10
2023-01-01T09:25:19.006Z,2.00
2023-01-01T09:27:46.908Z,2.30
2023-01-01T09:30:15.522Z,1.90
2023-01-01T09:32:43.379Z,1.80
2023-01-01T09:35:11.295Z,2.10
2023-01-01T09:37:39.375Z,2.20
2023-01-01T09:40:22.853Z,2.17
2023-01-01T09:43:01.559Z,2.42
2023-01-01T09:45:32.717Z,2.53
2023-01-01T09:48:06.327Z,2.45
2023-01-01T09:50:39.344Z,2.58
2023-01-01T09:53:14.815Z,2.15
2023-01-01T09:55:47.757Z,2.33
2023-01-01T09:58:16.603Z,2.40
2023-01-01T10:00:48.459Z,2.22
2023-01-01T10:03:37.766Z,2.30
2023-01-01T10:06:16.901Z,2.40
2023-01-01T10:08:58.475Z,2.70
2023-01-01T10:11:40.550Z,2.38
2023-01-01T10:14:19.339Z,2.15
2023-01-01T10:16:50.533Z,2.30
2023-01-01T10:19:27.602Z,2.05
2023-01-01T10:22:01.422Z,2.25
2023-01-01T10:24:40.262Z,1.85
2023-01-01T10:27:20.486Z,2.03
2023-01-01T10:29:58.030Z,1.80
2023-01-01T10:32:31.938Z,2.00
2023-01-01T10:35:02.148Z,2.30
2023-01-01T10:37:35.296Z,2.28
2023-01-01T10:40:07.955Z,1.83
2023-01-01T10:42:37.322Z,2.40
2023-01-01T10:45:06.321Z,2.28
2023-01-01T10:47:34.186Z,2.05
2023-01-01T10:50:07.611Z,1.90
2023-01-01T10:52:38.248Z,2.03
2023-01-01T10:55:09.449Z,1.88
2023-01-01T10:57:40.442Z,2.15
2023-01-01T11:00:20.648Z,2.15
2023-01-01T11:02:48.643Z,5.95
2023-01-01T11:05:22.023Z,2.20
2023-01-01T11:07:50.888Z,2.00
2023-01-01T11:10:21.320Z,1.92
2023-01-01T11:13:08.126Z,2.08
2023-01-01T11:15:41.313Z,2.10
2023-01-01T11:18:16.176Z,2.30
2023-01-01T11:20:44.804Z,1.90
2023-01-01T11:23:20.929Z,2.58
2023-01-01T11:26:00.125Z,2.10
2023-01-01T11:28:31.836Z,2.30
2023-01-01T11:31:08.081Z,2.50
2023-01-01T11:33:37.772Z,2.03
2023-01-01T11:36:07.290Z,2.40
2023-01-01T11:38:35.561Z,2.30
2023-01-01T11:41:06.169Z,2.28
2023-01-01T11:43:41.542Z,2.30
2023-01-01T11:46:13.158Z,2.67
2023-01-01T11:48:44.579Z,2.20
2023-01-01T11:51:28.990Z,2.13
2023-01-01T11:54:11.655Z,2.10
2023-01-01T11:56:40.802Z,2.05
2023-01-01T11:59:16.801Z,2.45
2023-01-01T12:01:48.374Z,2.22
2023-01-01T12:04:21.059Z,2.30
2023-01-01T12:06:53.481Z,2.22
2023-01-01T12:09:25.935Z,2.58
2023-01-01T12:11:58.506Z,2.22
2023-01-01T12:14:36.269Z,2.30
2023-01-01T12:17:06.488Z,2.10
2023-01-01T12:19:41.294Z,2.35
2023-01-01T12:22:16.345Z,2.00
2023-01-01T12:24:45.173Z,2.10
2023-01-01T12:27:26.333Z,2.15
2023-01-01T12:30:04.987Z,2.38
2023-01-01T12:32:48.497Z,2.00
2023-01-01T12:35:27.467Z,1.70
2023-01-01T12:38:04.480Z,1.92
2023-01-01T12:40:40.625Z,1.95
2023-01-01T12:43:11.880Z,1.60
2023-01-01T12:46:06.975Z,1.92
2023-01-01T12:48:51.508Z,1.95
2023-01-01T12:51:32.174Z,1.70
2023-01-01T12:54:29.415Z,1.77
2023-01-01T12:57:04.932Z,1.80
2023-01-01T13:02:15.419Z,1.50
2023-01-01T13:04:44.721Z,1.52
2023-01-01T13:07:15.061Z,1.65
2023-01-01T13:09:48.266Z,1.70
2023-01-01T13:12:18.876Z,1.60
2023-01-01T13:14:49.784Z,1.50
2023-01-01T13:17:23.509Z,1.50
2023-01-01T13:20:00.536Z,1.25
2023-01-01T13:22:42.104Z,1.65
2023-01-01T13:25:30.776Z,1.90
2023-01-01T13:28:11.816Z,1.55
2023-01-01T13:30:50.649Z,1.77
2023-01-01T13:33:27.255Z,1.77
2023-01-01T13:36:28.495Z,1.70
2023-01-01T13:38:57.257Z,1.60
2023-01-01T13:41:35.652Z,1.83
2023-01-01T13:44:19.522Z,1.67
2023-01-01T13:47:04.196Z,2.03
2023-01-01T13:49:48.228Z,2.05
2023-01-01T13:52:44.267Z,1.90
2023-01-01T13:55:59.525Z,2.05
2023-01-01T13:58:55.491Z,12.98
2023-01-01T14:01:49.027Z,3.80
2023-01-01T14:04:33.710Z,8.35
2023-01-01T14:07:40.903Z,7.03
2023-01-01T14:10:20.320Z,3.45
2023-01-01T14:12:48.335Z,3.53
2023-01-01T14:15:18.406Z,2.60
2023-01-01T14:17:46.385Z,2.97
2023-01-01T14:20:19.893Z,2.50
2023-01-01T14:22:51.787Z,2.70
2023-01-01T14:25:26.813Z,2.10
2023-01-01T14:27:55.909Z,2.22
2023-01-01T14:30:23.902Z,5.28
2023-01-01T14:32:57.828Z,6.60
2023-01-01T14:35:25.974Z,14.02
2023-01-01T14:37:55.288Z,23.30
2023-01-01T14:40:28.325Z,17.35
2023-01-01T14:43:01.063Z,13.68
2023-01-01T14:45:31.111Z,6.95
2023-01-01T14:47:59.242Z,10.57
2023-01-01T14:50:30.997Z,3.75
2023-01-01T14:53:05.191Z,2.22
2023-01-01T14:55:40.241Z,2.30
2023-01-01T14:58:13.731Z,2.17
2023-01-01T15:00:41.603Z,2.13
2023-01-01T15:03:15.120Z,2.42
2023-01-01T15:05:44.941Z,2.38
2023-01-01T15:08:23.095Z,2.25
2023-01-01T15:10:51.618Z,1.95
2023-01-01T15:13:21.171Z,1.88
2023-01-01T15:15:50.651Z,1.95
2023-01-01T15:18:43.110Z,2.28
2023-01-01T15:21:25.024Z,2.13
2023-01-01T15:23:57.367Z,2.10
2023-01-01T15:26:30.872Z,2.25
2023-01-01T15:29:00.743Z,2.10
2023-01-01T15:31:37.499Z,2.00
2023-01-01T15:34:06.008Z,1.80
2023-01-01T15:36:34.347Z,2.30
2023-01-01T15:39:03.669Z,2.00
2023-01-01T15:41:43.354Z,1.88
2023-01-01T15:44:22.532Z,2.10
2023-01-01T15:46:52.718Z,2.28
2023-01-01T15:49:25.780Z,2.40
2023-01-01T15:51:55.382Z,2.03
2023-01-01T15:54:24.982Z,2.30
2023-01-01T15:56:53.102Z,2.10
2023-01-01T15:59:28.683Z,2.40
2023-01-01T16:04:32.735Z,2.15
2023-01-01T16:07:01.140Z,2.08
2023-01-01T16:09:30.232Z,2.38
2023-01-01T16:11:59.368Z,2.40
2023-01-01T16:14:27.736Z,2.30
2023-01-01T16:17:00.861Z,2.85
2023-01-01T16:19:31.737Z,2.05
2023-01-01T16:21:59.501Z,2.30
2023-01-01T16:24:27.477Z,2.35
2023-01-01T16:26:56.639Z,2.40
2023-01-01T16:29:24.399Z,2.83
2023-01-01T16:31:52.871Z,3.03
2023-01-01T16:34:20.669Z,2.67
2023-01-01T16:36:49.283Z,2.65
2023-01-01T16:39:17.225Z,2.80
2023-01-01T16:41:45.941Z,2.58
2023-01-01T16:44:15.789Z,3.10
2023-01-01T16:46:44.170Z,2.70
2023-01-01T16:49:12.171Z,2.50
2023-01-01T16:51:43.835Z,2.85
2023-01-01T16:54:12.677Z,2.80
2023-01-01T16:56:40.855Z,3.00
2023-01-01T16:59:08.824Z,2.88
2023-01-01T17:01:38.249Z,2.95
2023-01-01T17:04:06.354Z,3.42
2023-01-01T17:06:34.762Z,3.40
2023-01-01T17:09:02.761Z,2.90
2023-01-01T17:11:30.673Z,3.63
2023-01-01T17:14:03.499Z,2.95
2023-01-01T17:16:39.138Z,3.22
2023-01-01T17:19:15.600Z,3.35
2023-01-01T17:21:47.638Z,3.10
2023-01-01T17:24:16.571Z,4.38
2023-01-01T17:26:44.923Z,3.53
2023-01-01T17:29:13.292Z,4.70
2023-01-01T17:31:41.500Z,4.22
2023-01-01T17:34:14.595Z,5.55
2023-01-01T17:36:43.599Z,5.55
2023-01-01T17:39:11.874Z,6.80
2023-01-01T17:41:40.063Z,16.42
2023-01-01T17:44:08.980Z,7.28
2023-01-01T17:46:37.477Z,5.15
2023-01-01T17:49:06.399Z,3.75
2023-01-01T17:51:35.568Z,3.00
2023-01-01T17:54:04.728Z,6.00
2023-01-01T17:56:32.690Z,3.67
2023-01-01T17:59:00.524Z,3.28
2023-01-01T18:01:32.123Z,3.30
2023-01-01T18:04:02.165Z,3.53
2023-01-01T18:06:32.044Z,5.20
2023-01-01T18:09:07.492Z,5.28
2023-01-01T18:11:35.821Z,4.60
2023-01-01T18:14:04.743Z,5.30
2023-01-01T18:16:34.750Z,4.40
2023-01-01T18:19:04.296Z,3.78
2023-01-01T18:21:33.235Z,3.38
2023-01-01T18:24:02.722Z,2.92
2023-01-01T18:26:32.288Z,3.22
2023-01-01T18:29:02.361Z,4.72
2023-01-01T18:31:32.316Z,3.33
2023-01-01T18:34:01.896Z,4.20
2023-01-01T18:36:32.183Z,3.65
2023-01-01T18:39:03.531Z,3.70
2023-01-01T18:41:53.782Z,3.10
2023-01-01T18:44:23.166Z,3.28
2023-01-01T18:46:55.852Z,3.85
2023-01-01T18:49:25.233Z,3.50
2023-01-01T18:51:57.192Z,4.00
2023-01-01T18:54:27.014Z,3.67
2023-01-01T18:57:04.052Z,3.50
2023-01-01T18:59:33.136Z,4.03
2023-01-01T19:02:01.756Z,3.10
2023-01-01T19:04:30.091Z,3.38
2023-01-01T19:06:58.378Z,3.50
2023-01-01T19:09:28.024Z,3.47
2023-01-01T19:11:58.038Z,4.00
2023-01-01T19:14:28.871Z,4.45
2023-01-01T19:16:59.116Z,3.70
2023-01-01T19:19:30.827Z,3.70
2023-01-01T19:22:07.962Z,3.70
2023-01-01T19:24:37.885Z,2.97
2023-01-01T19:27:14.703Z,3.05
2023-01-01T19:29:45.145Z,6.20
2023-01-01T19:32:13.271Z,4.70
2023-01-01T19:34:41.654Z,3.58
2023-01-01T19:37:11.045Z,3.13
2023-01-01T19:39:40.394Z,3.85
2023-01-01T19:42:08.869Z,3.35
2023-01-01T19:44:37.596Z,3.75
2023-01-01T19:47:05.850Z,3.28
2023-01-01T19:49:33.937Z,3.35
2023-01-01T19:52:03.740Z,3.53
2023-01-01T19:54:31.898Z,3.50
2023-01-01T19:57:01.394Z,3.42
2023-01-01T19:59:33.284Z,4.28
2023-01-01T20:04:51.237Z,3.97
2023-01-01T20:07:19.956Z,3.70
2023-01-01T20:09:48.522Z,3.78
2023-01-01T20:12:18.219Z,3.15
2023-01-01T20:14:46.666Z,3.28
2023-01-01T20:17:15.200Z,3.28
2023-01-01T20:19:43.768Z,3.30
2023-01-01T20:22:15.366Z,3.42
2023-01-01T20:24:45.001Z,3.15
2023-01-01T20:27:14.946Z,3.58
2023-01-01T20:29:45.560Z,3.60
2023-01-01T20:32:15.517Z,3.58
2023-01-01T20:34:44.116Z,3.97
2023-01-01T20:37:29.713Z,3.45
2023-01-01T20:39:58.128Z,3.63
2023-01-01T20:42:27.623Z,3.95
2023-01-01T20:44:57.408Z,3.30
2023-01-01T20:47:26.107Z,3.67
2023-01-01T20:49:54.670Z,3.72
2023-01-01T20:52:23.209Z,3.45
2023-01-01T20:54:52.267Z,3.30
2023-01-01T20:57:21.150Z,3.38
2023-01-01T20:59:49.753Z,3.67
2023-01-01T21:02:19.671Z,3.65
2023-01-01T21:04:47.914Z,3.42
2023-01-01T21:07:15.949Z,3.40
2023-01-01T21:09:44.357Z,3.10
2023-01-01T21:12:12.994Z,3.58
2023-01-01T21:14:40.863Z,3.72
2023-01-01T21:17:21.375Z,3.00
2023-01-01T21:19:50.302Z,3.13
2023-01-01T21:22:18.617Z,3.28
2023-01-01T21:24:51.818Z,3.13
2023-01-01T21:27:25.703Z,3.40
2023-01-01T21:29:57.598Z,3.45
2023-01-01T21:32:34.415Z,3.00
2023-01-01T21:35:02.589Z,4.00
2023-01-01T21:37:51.321Z,4.05
2023-01-01T21:40:32.605Z,3.88
2023-01-01T21:43:14.514Z,4.15
2023-01-01T21:45:45.610Z,5.70
2023-01-01T21:48:17.494Z,4.72
2023-01-01T21:50:48.707Z,5.22
2023-01-01T21:53:19.277Z,4.50
2023-01-01T21:55:55.123Z,4.20
2023-01-01T21:58:42.951Z,5.40
2023-01-01T22:01:21.057Z,5.40
2023-01-01T22:03:58.211Z,5.65
2023-01-01T22:06:32.954Z,5.68
2023-01-01T22:09:02.450Z,5.50
2023-01-01T22:11:30.929Z,5.25
2023-01-01T22:13:58.667Z,5.93
2023-01-01T22:16:29.842Z,6.03
2023-01-01T22:19:01.015Z,5.65
2023-01-01T22:21:28.767Z,6.50
2023-01-01T22:24:00.591Z,4.95
2023-01-01T22:26:31.176Z,3.95
2023-01-01T22:29:00.892Z,3.70
2023-01-01T22:31:32.257Z,3.63
2023-01-01T22:34:04.508Z,3.40
2023-01-01T22:36:36.073Z,3.75
2023-01-01T22:39:10.748Z,3.47
2023-01-01T22:41:38.632Z,3.87
2023-01-01T22:44:06.763Z,3.60
2023-01-01T22:46:37.863Z,3.08
2023-01-01T22:49:18.407Z,3.58
2023-01-01T22:51:47.444Z,3.50
2023-01-01T22:54:15.412Z,3.05
2023-01-01T23:05:00.860Z,4.45
2023-01-01T23:07:29.450Z,4.03
2023-01-01T23:09:58.267Z,3.97
2023-01-01T23:12:26.022Z,3.90
2023-01-01T23:15:11.263Z,4.28
2023-01-01T23:17:40.407Z,3.97
2023-01-01T23:20:09.715Z,3.88
2023-01-01T23:22:40.227Z,4.60
2023-01-01T23:25:11.327Z,4.60
2023-01-01T23:27:39.697Z,4.60
2023-01-01T23:30:08.358Z,4.53
2023-01-01T23:32:37.131Z,4.10
2023-01-01T23:35:07.153Z,4.38
2023-01-01T23:37:35.261Z,4.47
2023-01-01T23:40:03.202Z,4.45
2023-01-01T23:42:31.037Z,4.32
2023-01-01T23:44:58.748Z,3.80
2023-01-01T23:47:26.496Z,5.00
2023-01-01T23:49:54.192Z,4.00
2023-01-01T23:52:23.396Z,3.80
2023-01-01T23:54:51.221Z,4.13
2023-01-01T23:57:18.927Z,4.03
2023-01-01T23:59:46.721Z,4.78
